^^

..:: Storico WU ::.. Logo MeteoMincio




  Full-screen


Lo storico viene creato da WUnderground con i dati che la stazione Meteomincio invia dal 15 maggio 2010. L' aggiornamento viene fatto ogni 5 minuti circa, tuttavia possono esserci intervalli più ampi a causa di errori, interruzioni di servizio o problemi nell' invio tramite FTP.

Storico stazione MeteoMincio
 
Giorno Sommario per Giugno 25, 2017 Unità:  Metrico    Inglese   Entrambi
« Precedente Giorno
Prossimo Giorno »
Giorno Settimana Mese Anno Custom
  Corrente: Max: Min: Media:
Temperatura: 27.5 °C 29.6 °C 23.1 °C 25.2 °C
Dew Point: 19.6 °C 22.2 °C 18.2 °C 20.8 °C
Humidità: 62 % 88 % 58 % 77 %
Velocità vento: 42.6 km/h 42.6 km/h 0.0 km/h 33.4 km/h
Raffica: 42.6 km/h 42.6 km/h - -
Direzione:NW - - SW
Pressione: 1011.1 hPa 1011.7 hPa 1009.7 hPa -
Precipitazioni: 0.0 mm      
Historical Graphs
 
 
Tabulato Dati per Giugno 25, 2017
Ora Temperatura Dew Point Pressione Direzione Velocità vento Raffica Umidità Intensità pioggia (oraria) Info solare Situazione
00:00 27.1 °C 21.6 °C 1011.4 hPa SE 32.2 km/h 32.2 km/h 72 % 0.0 mm 0.0 W/m2 CLR
00:05 27.2 °C 21.5 °C 1011.4 hPa SSW 32.2 km/h 32.2 km/h 71 % 0.0 mm 0.0 W/m2 CLR
00:10 27.6 °C 20.9 °C 1011.4 hPa SW 32.2 km/h 32.2 km/h 67 % 0.0 mm 0.0 W/m2 CLR
00:15 27.7 °C 20.8 °C 1011.4 hPa SW 32.2 km/h 32.2 km/h 66 % 0.0 mm 0.0 W/m2 CLR
00:21 27.8 °C 20.7 °C 1011.4 hPa WSW 32.2 km/h 32.2 km/h 65 % 0.0 mm 0.0 W/m2 CLR
00:26 27.9 °C 20.8 °C 1011.4 hPa SW 32.2 km/h 32.2 km/h 65 % 0.0 mm 0.0 W/m2 CLR
00:31 27.8 °C 20.9 °C 1011.7 hPa West 32.2 km/h 32.2 km/h 66 % 0.0 mm 0.0 W/m2 CLR
00:36 27.5 °C 20.8 °C 1011.4 hPa SW 32.2 km/h 32.2 km/h 67 % 0.0 mm 0.0 W/m2 CLR
00:41 27.3 °C 20.7 °C 1011.4 hPa SW 32.2 km/h 32.2 km/h 67 % 0.0 mm 0.0 W/m2 CLR
00:46 27.2 °C 20.8 °C 1011.1 hPa SW 32.2 km/h   68 % 0.0 mm 0.0 W/m2 CLR
00:51 26.9 °C 20.6 °C 1011.4 hPa SW 32.2 km/h   68 % 0.0 mm 0.0 W/m2 CLR
00:56 26.7 °C 20.7 °C 1011.4 hPa SW 32.2 km/h   70 % 0.0 mm 0.0 W/m2 CLR
01:01 26.6 °C 20.9 °C 1011.4 hPa SW 32.2 km/h 32.2 km/h 71 % 0.0 mm 0.0 W/m2 CLR
01:06 26.4 °C 21.0 °C 1011.1 hPa SW 32.2 km/h 32.2 km/h 72 % 0.0 mm 0.0 W/m2 CLR
01:11 26.2 °C 20.8 °C 1011.1 hPa SW 32.2 km/h 32.2 km/h 72 % 0.0 mm 0.0 W/m2 CLR
01:16 26.0 °C 20.8 °C 1011.1 hPa SSW 32.2 km/h 32.2 km/h 73 % 0.0 mm 0.0 W/m2 CLR
01:21 26.1 °C 20.8 °C 1011.1 hPa SSW 32.2 km/h 32.2 km/h 73 % 0.0 mm 0.0 W/m2 CLR
01:26 26.1 °C 20.8 °C 1011.1 hPa SSW 32.2 km/h 32.2 km/h 73 % 0.0 mm 0.0 W/m2 CLR
01:31 25.6 °C 20.8 °C 1011.1 hPa ESE 32.2 km/h 32.2 km/h 75 % 0.0 mm 0.0 W/m2 CLR
01:36 25.3 °C 20.9 °C 1011.1 hPa ESE 32.2 km/h 32.2 km/h 77 % 0.0 mm 0.0 W/m2 CLR
01:41 25.3 °C 21.0 °C 1011.1 hPa ESE 32.2 km/h 32.2 km/h 77 % 0.0 mm 0.0 W/m2 CLR
01:46 25.4 °C 20.8 °C 1011.1 hPa SSE 32.2 km/h 32.2 km/h 76 % 0.0 mm 0.0 W/m2 CLR
01:51 25.7 °C 21.1 °C 1011.1 hPa SSW 32.2 km/h 32.2 km/h 76 % 0.0 mm 0.0 W/m2 CLR
01:56 25.8 °C 21.0 °C 1011.1 hPa SW 32.2 km/h 32.2 km/h 75 % 0.0 mm 0.0 W/m2 CLR
02:01 25.8 °C 21.0 °C 1011.4 hPa SW 32.2 km/h 32.2 km/h 75 % 0.0 mm 0.0 W/m2 CLR
02:06 25.5 °C 21.2 °C 1011.1 hPa SW 32.2 km/h 32.2 km/h 77 % 0.0 mm 0.0 W/m2 CLR
02:11 25.3 °C 21.2 °C 1011.1 hPa WSW 32.2 km/h 32.2 km/h 78 % 0.0 mm 0.0 W/m2 CLR
02:16 25.2 °C 21.1 °C 1011.1 hPa WSW 32.2 km/h 32.2 km/h 78 % 0.0 mm 0.0 W/m2 CLR
02:22 25.1 °C 21.2 °C 1011.4 hPa WSW 32.2 km/h 32.2 km/h 79 % 0.0 mm 0.0 W/m2 CLR
02:27 25.2 °C 21.3 °C 1011.4 hPa West 32.2 km/h 32.2 km/h 79 % 0.0 mm 0.0 W/m2 CLR
02:32 25.3 °C 21.4 °C 1011.4 hPa West 32.2 km/h 32.2 km/h 79 % 0.0 mm 0.0 W/m2 CLR
02:37 25.4 °C 21.3 °C 1011.4 hPa West 32.2 km/h 32.2 km/h 78 % 0.0 mm 0.0 W/m2 CLR
02:42 25.3 °C 21.4 °C 1011.1 hPa West 32.2 km/h 32.2 km/h 79 % 0.0 mm 0.0 W/m2 CLR
02:47 25.3 °C 21.4 °C 1011.1 hPa West 32.2 km/h 32.2 km/h 79 % 0.0 mm 0.0 W/m2 CLR
02:52 25.3 °C 21.4 °C 1011.4 hPa WNW 32.2 km/h 32.2 km/h 79 % 0.0 mm 0.0 W/m2 CLR
02:57 25.3 °C 21.4 °C 1011.1 hPa WNW 32.2 km/h 32.2 km/h 79 % 0.0 mm 0.0 W/m2 CLR
03:02 25.2 °C 21.3 °C 1011.1 hPa NW 32.2 km/h 32.2 km/h 79 % 0.0 mm 0.0 W/m2 CLR
03:07 25.2 °C 21.3 °C 1011.1 hPa NW 32.2 km/h 32.2 km/h 79 % 0.0 mm 0.0 W/m2 CLR
03:12 25.3 °C 21.4 °C 1011.1 hPa NW 32.2 km/h 32.2 km/h 79 % 0.0 mm 0.0 W/m2 CLR
03:17 25.3 °C 21.4 °C 1011.1 hPa WNW 32.2 km/h 32.2 km/h 79 % 0.0 mm 0.0 W/m2 CLR
03:22 24.9 °C 21.3 °C 1011.1 hPa WNW 32.2 km/h   80 % 0.0 mm 0.0 W/m2 CLR
03:27 25.1 °C 21.4 °C 1011.1 hPa WNW 32.2 km/h   80 % 0.0 mm 0.0 W/m2 CLR
03:32 24.9 °C 21.4 °C 1011.1 hPa WNW 32.2 km/h 32.2 km/h 81 % 0.0 mm 0.0 W/m2 CLR
03:37 25.2 °C 21.4 °C 1011.1 hPa WNW 32.2 km/h 32.2 km/h 80 % 0.0 mm 0.0 W/m2 CLR
03:42 25.1 °C 21.6 °C 1010.7 hPa WNW 32.2 km/h 32.2 km/h 81 % 0.0 mm 0.0 W/m2 CLR
03:47 24.8 °C 21.3 °C 1010.7 hPa NW 32.2 km/h 32.2 km/h 81 % 0.0 mm 0.0 W/m2 CLR
03:52 24.5 °C 21.4 °C 1010.7 hPa WNW 32.2 km/h 32.2 km/h 83 % 0.0 mm 0.0 W/m2 CLR
03:57 24.2 °C 21.3 °C 1010.7 hPa NW 32.2 km/h 32.2 km/h 84 % 0.0 mm 0.0 W/m2 CLR
04:02 24.1 °C 21.2 °C 1010.7 hPa WNW 32.2 km/h 32.2 km/h 84 % 0.0 mm 0.0 W/m2 CLR
04:07 24.4 °C 21.6 °C 1010.4 hPa WNW 32.2 km/h 32.2 km/h 84 % 0.0 mm 0.0 W/m2 CLR
04:12 24.6 °C 21.5 °C 1010.4 hPa West 32.2 km/h 32.2 km/h 83 % 0.0 mm 0.0 W/m2 CLR
04:17 24.4 °C 21.4 °C 1010.4 hPa West 32.2 km/h 32.2 km/h 83 % 0.0 mm 0.0 W/m2 CLR
04:22 24.4 °C 21.6 °C 1010.0 hPa West 32.2 km/h   84 % 0.0 mm 0.0 W/m2 CLR
04:27 24.1 °C 21.4 °C 1010.0 hPa West 32.2 km/h 32.2 km/h 85 % 0.0 mm 0.0 W/m2 CLR
04:32 24.3 °C 21.6 °C 1010.0 hPa West 32.2 km/h 32.2 km/h 85 % 0.0 mm 0.0 W/m2 FEW
04:35 24.2 °C 21.6 °C 1010.0 hPa West 32.2 km/h 32.2 km/h 85 % 0.0 mm 0.0 W/m2 FEW
04:40 24.4 °C 21.5 °C 1009.7 hPa West 32.2 km/h 32.2 km/h 84 % 0.0 mm 0.0 W/m2 FEW
04:45 24.4 °C 21.5 °C 1009.7 hPa West 32.2 km/h 32.2 km/h 84 % 0.0 mm 0.0 W/m2 FEW
04:50 24.4 °C 21.3 °C 1010.0 hPa West 32.2 km/h 32.2 km/h 83 % 0.0 mm 0.0 W/m2 FEW
04:55 24.5 °C 21.4 °C 1010.0 hPa West 32.2 km/h 32.2 km/h 83 % 0.0 mm 0.0 W/m2 FEW
05:00 24.4 °C 21.4 °C 1010.0 hPa West 32.2 km/h 32.2 km/h 83 % 0.0 mm 0.0 W/m2 FEW
05:05 24.3 °C 21.2 °C 1010.0 hPa Calm   3.2 km/h 83 % 0.0 mm 0.0 W/m2 FEW
05:10 24.1 °C 21.2 °C 1010.0 hPa West 32.2 km/h 32.2 km/h 84 % 0.0 mm 0.0 W/m2 FEW
05:15 23.8 °C 21.1 °C 1010.0 hPa West 32.2 km/h 32.2 km/h 85 % 0.0 mm 0.0 W/m2 FEW
05:20 23.4 °C 21.1 °C 1010.0 hPa SSE 3.2 km/h 4.8 km/h 87 % 0.0 mm 0.0 W/m2 FEW
05:25 23.2 °C 21.1 °C 1009.7 hPa ESE 1.6 km/h 4.8 km/h 88 % 0.0 mm 0.0 W/m2 FEW
05:30 23.3 °C 21.2 °C 1010.0 hPa ESE 1.6 km/h 3.2 km/h 88 % 0.0 mm 0.0 W/m2 FEW
05:35 23.3 °C 21.2 °C 1010.0 hPa East 32.2 km/h 32.2 km/h 88 % 0.0 mm 0.0 W/m2 SCT
05:40 23.3 °C 21.2 °C 1010.0 hPa East 1.6 km/h 4.8 km/h 88 % 0.0 mm 0.0 W/m2 SCT
05:45 23.3 °C 21.2 °C 1010.0 hPa East 32.2 km/h 32.2 km/h 88 % 0.0 mm 7.0 W/m2 SCT
05:50 23.5 °C 21.4 °C 1010.0 hPa East 32.2 km/h   88 % 0.0 mm 9.0 W/m2 SCT
05:55 23.8 °C 21.6 °C 1010.0 hPa East 1.6 km/h 3.2 km/h 87 % 0.0 mm 12.0 W/m2 SCT
06:00 23.9 °C 21.4 °C 1010.0 hPa East 32.2 km/h   86 % 0.0 mm 14.0 W/m2 SCT
06:05 23.9 °C 21.2 °C 1010.0 hPa East 32.2 km/h 32.2 km/h 85 % 0.0 mm 18.0 W/m2 SCT
06:10 24.0 °C 21.3 °C 1010.0 hPa East 1.6 km/h 3.2 km/h 85 % 0.0 mm 21.0 W/m2 SCT
06:15 24.0 °C 21.2 °C 1009.7 hPa ENE 3.2 km/h 6.4 km/h 84 % 0.0 mm 25.0 W/m2 SCT
06:20 23.7 °C 21.1 °C 1009.7 hPa ENE 32.2 km/h 32.2 km/h 85 % 0.0 mm 28.0 W/m2 SCT
06:25 23.6 °C 21.1 °C 1009.7 hPa ENE 1.6 km/h 4.8 km/h 86 % 0.0 mm 33.0 W/m2 SCT
06:30 23.7 °C 21.2 °C 1009.7 hPa ENE 1.6 km/h 4.8 km/h 86 % 0.0 mm 39.0 W/m2 SCT
06:35 23.9 °C 21.3 °C 1009.7 hPa ENE 32.2 km/h 32.2 km/h 85 % 0.0 mm 40.0 W/m2 SCT
06:40 24.2 °C 21.6 °C 1009.7 hPa ENE 32.2 km/h 32.2 km/h 85 % 0.0 mm 40.0 W/m2 SCT
06:45 24.3 °C 21.4 °C 1009.7 hPa ENE 32.2 km/h   84 % 0.0 mm 35.0 W/m2 SCT
06:50 24.4 °C 21.5 °C 1009.7 hPa East 32.2 km/h 32.2 km/h 84 % 0.0 mm 39.0 W/m2 SCT
06:55 24.5 °C 21.6 °C 1010.0 hPa East 32.2 km/h 32.2 km/h 84 % 0.0 mm 46.0 W/m2 SCT
07:01 24.8 °C 21.7 °C 1009.7 hPa East 32.2 km/h 32.2 km/h 83 % 0.0 mm 47.0 W/m2 SCT
07:06 25.0 °C 21.9 °C 1010.0 hPa ESE 32.2 km/h 32.2 km/h 83 % 0.0 mm 49.0 W/m2 SCT
07:10 24.9 °C 21.8 °C 1010.0 hPa ESE 32.2 km/h 32.2 km/h 83 % 0.0 mm 40.0 W/m2 SCT
07:16 24.8 °C 21.7 °C 1010.0 hPa ESE 32.2 km/h 32.2 km/h 83 % 0.0 mm 39.0 W/m2 SCT
07:21 24.7 °C 21.8 °C 1009.7 hPa ESE 32.2 km/h 32.2 km/h 84 % 0.0 mm 39.0 W/m2 SCT
07:26 24.8 °C 21.7 °C 1009.7 hPa SE 32.2 km/h 32.2 km/h 83 % 0.0 mm 47.0 W/m2 SCT
07:31 24.7 °C 21.8 °C 1009.7 hPa SE 32.2 km/h 32.2 km/h 84 % 0.0 mm 44.0 W/m2 SCT
07:36 24.7 °C 21.8 °C 1009.7 hPa SE 32.2 km/h 32.2 km/h 84 % 0.0 mm 46.0 W/m2 BKN
07:41 24.6 °C 21.7 °C 1009.7 hPa SE 32.2 km/h 32.2 km/h 84 % 0.0 mm 74.0 W/m2 BKN
07:46 24.7 °C 21.8 °C 1010.0 hPa ESE 32.2 km/h 32.2 km/h 84 % 0.0 mm 93.0 W/m2 BKN
07:51 24.8 °C 21.9 °C 1010.0 hPa ESE 32.2 km/h   84 % 0.0 mm 102.0 W/m2 BKN
07:56 25.1 °C 21.9 °C 1010.4 hPa SSW 32.2 km/h 32.2 km/h 83 % 0.0 mm 81.0 W/m2 BKN
08:01 25.2 °C 22.1 °C 1010.7 hPa West 32.2 km/h 32.2 km/h 83 % 0.0 mm 116.0 W/m2 BKN
08:06 25.2 °C 22.1 °C 1010.7 hPa West 32.2 km/h 32.2 km/h 83 % 0.0 mm 134.0 W/m2 BKN
08:11 25.4 °C 22.2 °C 1011.1 hPa West 32.2 km/h 32.2 km/h 82 % 0.0 mm 76.0 W/m2 BKN
08:16 25.4 °C 22.1 °C 1011.1 hPa West 32.2 km/h 32.2 km/h 82 % 0.0 mm 58.0 W/m2 BKN
08:21 25.4 °C 22.2 °C 1011.1 hPa West 32.2 km/h 32.2 km/h 82 % 0.0 mm 54.0 W/m2 BKN
08:26 25.3 °C 22.1 °C 1010.7 hPa WNW 32.2 km/h 32.2 km/h 82 % 0.0 mm 47.0 W/m2 BKN
08:31 25.3 °C 22.1 °C 1010.7 hPa West 32.2 km/h 32.2 km/h 82 % 0.0 mm 46.0 W/m2 BKN
08:36 25.2 °C 22.1 °C 1011.1 hPa NW 32.2 km/h 32.2 km/h 83 % 0.0 mm 23.0 W/m2 BKN
08:41 25.2 °C 22.1 °C 1011.4 hPa NW 32.2 km/h 32.2 km/h 83 % 0.0 mm 9.0 W/m2 BKN
08:46 23.9 °C 19.2 °C 1011.7 hPa NW 42.6 km/h 42.6 km/h 75 % 0.0 mm 12.0 W/m2 BKN
08:51 23.3 °C 19.1 °C 1011.4 hPa WNW 42.6 km/h 42.6 km/h 77 % 0.0 mm 40.0 W/m2 BKN
08:56 23.1 °C 18.2 °C 1011.1 hPa NNW 42.6 km/h 42.6 km/h 74 % 0.0 mm 46.0 W/m2 BKN
09:01 23.2 °C 18.3 °C 1011.4 hPa NNW 42.6 km/h 42.6 km/h 74 % 0.0 mm 79.0 W/m2 BKN
09:06 23.1 °C 18.4 °C 1011.4 hPa NNW 42.6 km/h 42.6 km/h 75 % 0.0 mm 100.0 W/m2 BKN
09:08 23.1 °C 18.4 °C 1011.1 hPa NNW 42.6 km/h 42.6 km/h 75 % 0.0 mm 107.0 W/m2 BKN
09:13 23.1 °C 18.4 °C 1011.1 hPa NW 42.6 km/h 42.6 km/h 75 % 0.0 mm 116.0 W/m2 BKN
09:18 23.2 °C 18.5 °C 1010.7 hPa NNE 42.6 km/h 42.6 km/h 75 % 0.0 mm 132.0 W/m2 BKN
09:23 23.3 °C 18.4 °C 1011.1 hPa NNW 42.6 km/h 42.6 km/h 74 % 0.0 mm 139.0 W/m2 BKN
09:28 23.4 °C 18.3 °C 1011.1 hPa NNE 42.6 km/h 42.6 km/h 73 % 0.0 mm 162.0 W/m2 BKN
09:33 23.5 °C 18.6 °C 1010.7 hPa North 42.6 km/h 42.6 km/h 74 % 0.0 mm 206.0 W/m2 -RA
09:38 23.4 °C 18.6 °C 1010.7 hPa NE 42.6 km/h 42.6 km/h 74 % 0.0 mm 229.0 W/m2 -RA
09:43 23.9 °C 18.8 °C 1010.4 hPa North 42.6 km/h 42.6 km/h 73 % 0.0 mm 253.0 W/m2 -RA
09:48 23.9 °C 18.8 °C 1010.4 hPa NNE 42.6 km/h 42.6 km/h 73 % 0.0 mm 278.0 W/m2 -RA
09:53 24.0 °C 18.7 °C 1010.4 hPa North 42.6 km/h 42.6 km/h 72 % 0.0 mm 299.0 W/m2 -RA
09:58 24.3 °C 19.1 °C 1010.4 hPa North 42.6 km/h 42.6 km/h 73 % 0.0 mm 329.0 W/m2 -RA
10:04 24.4 °C 19.2 °C 1010.4 hPa North 42.6 km/h 42.6 km/h 73 % 0.0 mm 343.0 W/m2 -RA
10:09 24.6 °C 19.4 °C 1010.4 hPa NE 42.6 km/h 42.6 km/h 73 % 0.0 mm 352.0 W/m2 SCT
10:10 24.5 °C 19.1 °C 1010.4 hPa NE 42.6 km/h 42.6 km/h 72 % 0.0 mm 353.0 W/m2 SCT
10:15 24.6 °C 19.4 °C 1010.7 hPa NE 42.6 km/h 42.6 km/h 73 % 0.0 mm 250.0 W/m2 SCT
10:20 24.6 °C 19.4 °C 1010.7 hPa North 42.6 km/h 42.6 km/h 73 % 0.0 mm 311.0 W/m2 SCT
10:25 25.1 °C 19.4 °C 1010.7 hPa NNW 42.6 km/h 42.6 km/h 71 % 0.0 mm 274.0 W/m2 SCT
10:30 25.0 °C 19.2 °C 1010.7 hPa NW 42.6 km/h 42.6 km/h 70 % 0.0 mm 410.0 W/m2 SCT
10:35 25.2 °C 19.3 °C 1010.4 hPa NW 42.6 km/h 42.6 km/h 70 % 0.0 mm 369.0 W/m2 BKN
10:40 25.8 °C 19.9 °C 1010.4 hPa North 42.6 km/h 42.6 km/h 70 % 0.0 mm 540.0 W/m2 BKN
10:45 25.8 °C 20.2 °C 1010.7 hPa West 42.6 km/h 42.6 km/h 71 % 0.0 mm 392.0 W/m2 BKN
10:50 26.1 °C 19.9 °C 1010.4 hPa NW 42.6 km/h 42.6 km/h 69 % 0.0 mm 408.0 W/m2 BKN
10:55 26.1 °C 19.7 °C 1010.7 hPa WNW 42.6 km/h 42.6 km/h 68 % 0.0 mm 345.0 W/m2 BKN
11:00 26.2 °C 19.8 °C 1010.7 hPa NW 42.6 km/h 42.6 km/h 68 % 0.0 mm 397.0 W/m2 BKN
11:05 26.7 °C 19.8 °C 1010.7 hPa WNW 42.6 km/h 42.6 km/h 66 % 0.0 mm 388.0 W/m2 BKN
11:10 26.8 °C 19.7 °C 1010.7 hPa NW 42.6 km/h 42.6 km/h 65 % 0.0 mm 478.0 W/m2 BKN
11:15 26.9 °C 19.5 °C 1010.7 hPa WNW 42.6 km/h 42.6 km/h 64 % 0.0 mm 257.0 W/m2 BKN
11:20 26.9 °C 19.8 °C 1010.7 hPa NNW 42.6 km/h 42.6 km/h 65 % 0.0 mm 350.0 W/m2 BKN
11:25 27.7 °C 19.7 °C 1010.7 hPa NNW 42.6 km/h 42.6 km/h 62 % 0.0 mm 624.0 W/m2 BKN
11:30 28.2 °C 20.4 °C 1010.7 hPa NNW 42.6 km/h 42.6 km/h 63 % 0.0 mm 731.0 W/m2 BKN
11:35 28.2 °C 20.2 °C 1011.1 hPa NNE 42.6 km/h 42.6 km/h 62 % 0.0 mm 696.0 W/m2 BKN
11:36 28.2 °C 20.2 °C 1011.1 hPa North 42.6 km/h 42.6 km/h 62 % 0.0 mm 696.0 W/m2 BKN
11:41 28.9 °C 20.9 °C 1010.7 hPa NNW 42.6 km/h 42.6 km/h 62 % 0.0 mm 708.0 W/m2 BKN
11:46 28.6 °C 20.1 °C 1010.7 hPa NNW 42.6 km/h 42.6 km/h 60 % 0.0 mm 737.0 W/m2 BKN
11:51 29.3 °C 20.7 °C 1011.1 hPa NNW 42.6 km/h 42.6 km/h 60 % 0.0 mm 821.0 W/m2 BKN
11:56 29.6 °C 20.4 °C 1011.1 hPa North 42.6 km/h 42.6 km/h 58 % 0.0 mm 666.0 W/m2 BKN
12:01 28.8 °C 20.3 °C 1011.1 hPa NE 42.6 km/h 42.6 km/h 60 % 0.0 mm 478.0 W/m2 BKN
12:06 28.1 °C 20.1 °C 1011.4 hPa North 42.6 km/h 42.6 km/h 62 % 0.0 mm 367.0 W/m2 BKN
12:11 28.1 °C 20.1 °C 1011.1 hPa NNW 42.6 km/h 42.6 km/h 62 % 0.0 mm 323.0 W/m2 BKN
12:16 28.3 °C 20.1 °C 1011.1 hPa NNW 42.6 km/h 42.6 km/h 61 % 0.0 mm 330.0 W/m2 BKN
12:21 27.5 °C 19.6 °C 1011.1 hPa NW 42.6 km/h 42.6 km/h 62 % 0.0 mm 283.0 W/m2 BKN
Stazione Meteorologica MeteoMincio Rivalta s/M (MN)
Con i complimenti di Weather Underground - 3 mb


GLOSSARIO METEOROLOGICO
Indice di calore (Heat Index)
Utilizza la temperatura e l'umidità relativa per determinare la sensazione di calore dell'aria. Quando l'umidità è bassa, la temperatura apparente sarà minore della temperatura dell'aria, dal momento che la traspirazione evapora rapidamente e raffredda il corpo. Quando l'umidità è alta, la temperatura apparente sembrerà più alta dell'attuale temperatura dell'aria, perchè la traspirazione del corpo evapora più lentamente.

Share
Non seguire questo link o sarai bannato dal sito!